createdAt,value
2019-03-06T00:00:00.653Z,991.65
2019-03-06T00:01:00.621Z,991.68
2019-03-06T00:02:00.614Z,991.65
2019-03-06T00:03:00.599Z,991.62
2019-03-06T00:04:00.610Z,991.64
2019-03-06T00:05:00.601Z,991.64
2019-03-06T00:06:00.563Z,991.64
2019-03-06T00:07:00.554Z,991.61
2019-03-06T00:08:00.541Z,991.62
2019-03-06T00:09:00.530Z,991.62
2019-03-06T00:10:00.620Z,991.62
2019-03-06T00:11:00.507Z,991.59
2019-03-06T00:12:00.495Z,991.60
2019-03-06T00:13:00.487Z,991.55
2019-03-06T00:14:00.476Z,991.56
2019-03-06T00:15:00.486Z,991.61
2019-03-06T00:16:00.464Z,991.53
2019-03-06T00:17:00.442Z,991.57
2019-03-06T00:18:00.475Z,991.52
2019-03-06T00:19:00.424Z,991.49
2019-03-06T00:20:00.432Z,991.46
2019-03-06T00:21:00.402Z,991.45
2019-03-06T00:22:00.397Z,991.44
2019-03-06T00:23:02.059Z,991.43
2019-03-06T00:24:00.364Z,991.44
2019-03-06T00:25:00.376Z,991.40
2019-03-06T00:26:00.347Z,991.40
2019-03-06T00:27:00.329Z,991.36
2019-03-06T00:28:00.355Z,991.37
2019-03-06T00:29:00.307Z,991.34
2019-03-06T00:30:00.372Z,991.35
2019-03-06T00:31:00.308Z,991.36
2019-03-06T00:32:00.274Z,991.29
2019-03-06T00:33:00.266Z,991.28
2019-03-06T00:34:00.267Z,991.28
2019-03-06T00:35:00.265Z,991.23
2019-03-06T00:36:00.230Z,991.24
2019-03-06T00:37:00.218Z,991.20
2019-03-06T00:38:00.208Z,991.18
2019-03-06T00:39:00.196Z,991.21
2019-03-06T00:40:00.368Z,991.17
2019-03-06T00:41:00.183Z,991.19
2019-03-06T00:42:00.164Z,991.16
2019-03-06T00:43:00.151Z,991.16
2019-03-06T00:44:00.147Z,991.20
2019-03-06T00:45:00.326Z,991.18
2019-03-06T00:46:00.132Z,991.15
2019-03-06T00:47:00.108Z,991.14
2019-03-06T00:48:00.094Z,991.11
2019-03-06T00:49:00.084Z,991.16
2019-03-06T00:50:00.177Z,991.14
2019-03-06T00:51:00.088Z,991.13
2019-03-06T00:52:00.078Z,991.13
2019-03-06T00:53:00.039Z,991.10
2019-03-06T00:54:00.029Z,991.12
2019-03-06T00:55:00.018Z,991.10
2019-03-06T00:56:00.030Z,991.04
2019-03-06T00:56:59.995Z,991.05
2019-03-06T00:58:00.024Z,991.04
2019-03-06T00:58:59.974Z,991.02
2019-03-06T00:59:59.960Z,991.05
2019-03-06T01:00:59.976Z,991.05
2019-03-06T01:01:59.939Z,991.07
2019-03-06T01:02:59.929Z,991.05
2019-03-06T01:03:59.935Z,991.08
2019-03-06T01:04:59.910Z,991.05
2019-03-06T01:05:59.919Z,991.01
2019-03-06T01:06:59.881Z,990.99
2019-03-06T01:07:59.871Z,991.03
2019-03-06T01:08:59.866Z,991.03
2019-03-06T01:09:59.875Z,991.01
2019-03-06T01:10:59.866Z,990.92
2019-03-06T01:11:59.827Z,990.93
2019-03-06T01:12:59.817Z,990.96
2019-03-06T01:13:59.802Z,990.93
2019-03-06T01:14:59.791Z,990.96
2019-03-06T01:15:59.836Z,990.93
2019-03-06T01:16:59.769Z,990.96
2019-03-06T01:17:59.758Z,990.92
2019-03-06T01:18:59.746Z,990.94
2019-03-06T01:19:59.737Z,990.93
2019-03-06T01:20:59.752Z,990.92
2019-03-06T01:21:59.736Z,990.90
2019-03-06T01:22:59.703Z,990.86
2019-03-06T01:23:59.691Z,990.83
2019-03-06T01:24:59.679Z,990.85
2019-03-06T01:25:59.693Z,990.75
2019-03-06T01:26:59.659Z,990.74
2019-03-06T01:27:59.665Z,990.80
2019-03-06T01:28:59.636Z,990.84
2019-03-06T01:29:59.627Z,990.89
2019-03-06T01:30:59.650Z,990.81
2019-03-06T01:31:59.624Z,990.81
2019-03-06T01:32:59.594Z,990.78
2019-03-06T01:33:59.603Z,990.70
2019-03-06T01:34:59.573Z,990.77
2019-03-06T01:35:59.582Z,990.82
2019-03-06T01:36:59.544Z,990.78
2019-03-06T01:37:59.534Z,990.76
2019-03-06T01:38:59.523Z,990.73
2019-03-06T01:39:59.536Z,990.68
2019-03-06T01:40:59.529Z,990.65
2019-03-06T01:41:59.512Z,990.66
2019-03-06T01:42:59.476Z,990.68
2019-03-06T01:43:59.468Z,990.67
2019-03-06T01:44:59.458Z,990.65
2019-03-06T01:45:59.465Z,990.72
2019-03-06T01:46:59.457Z,990.70
2019-03-06T01:47:59.422Z,990.68
2019-03-06T01:48:59.413Z,990.70
2019-03-06T01:49:59.398Z,990.65
2019-03-06T01:50:59.387Z,990.67
2019-03-06T01:51:59.411Z,990.66
2019-03-06T01:52:59.370Z,990.64
2019-03-06T01:53:59.353Z,990.59
2019-03-06T01:54:59.342Z,990.52
2019-03-06T01:55:59.330Z,990.51
2019-03-06T01:56:59.343Z,990.52
2019-03-06T01:57:59.360Z,990.53
2019-03-06T01:58:59.296Z,990.54
2019-03-06T01:59:59.285Z,990.56
2019-03-06T02:00:59.274Z,990.55
2019-03-06T02:01:59.285Z,990.62
2019-03-06T02:02:59.250Z,990.57
2019-03-06T02:03:59.252Z,990.58
2019-03-06T02:04:59.231Z,990.50
2019-03-06T02:05:59.220Z,990.57
2019-03-06T02:06:59.228Z,990.54
2019-03-06T02:07:59.198Z,990.44
2019-03-06T02:08:59.185Z,990.42
2019-03-06T02:09:59.184Z,990.37
2019-03-06T02:10:59.162Z,990.32
2019-03-06T02:11:59.176Z,990.30
2019-03-06T02:12:59.165Z,990.34
2019-03-06T02:13:59.145Z,990.32
2019-03-06T02:14:59.123Z,990.34
2019-03-06T02:15:59.144Z,990.32
2019-03-06T02:16:59.118Z,990.31
2019-03-06T02:17:59.083Z,990.30
2019-03-06T02:18:59.077Z,990.29
2019-03-06T02:19:59.062Z,990.29
2019-03-06T02:20:59.051Z,990.27
2019-03-06T02:21:59.084Z,990.30
2019-03-06T02:22:59.029Z,990.33
2019-03-06T02:23:59.017Z,990.31
2019-03-06T02:24:59.008Z,990.34
2019-03-06T02:25:58.994Z,990.37
2019-03-06T02:26:59.009Z,990.32
2019-03-06T02:27:58.985Z,990.36
2019-03-06T02:28:58.965Z,990.36
2019-03-06T02:29:58.951Z,990.37
2019-03-06T02:30:58.938Z,990.39
2019-03-06T02:31:58.954Z,990.37
2019-03-06T02:32:58.941Z,990.37
2019-03-06T02:33:58.926Z,990.33
2019-03-06T02:34:58.899Z,990.30
2019-03-06T02:35:58.888Z,990.32
2019-03-06T02:36:58.883Z,990.31
2019-03-06T02:37:58.891Z,990.31
2019-03-06T02:38:58.852Z,990.30
2019-03-06T02:39:58.839Z,990.24
2019-03-06T02:40:58.840Z,990.23
2019-03-06T02:41:58.819Z,990.20
2019-03-06T02:42:58.848Z,990.15
2019-03-06T02:43:58.794Z,990.23
2019-03-06T02:44:58.782Z,990.12
2019-03-06T02:45:58.773Z,990.10
2019-03-06T02:46:58.780Z,990.07
2019-03-06T02:47:58.776Z,990.09
2019-03-06T02:48:58.737Z,990.04
2019-03-06T02:49:58.727Z,990.05
2019-03-06T02:50:58.728Z,989.99
2019-03-06T02:51:58.708Z,989.98
2019-03-06T02:52:58.736Z,989.97
2019-03-06T02:53:58.688Z,989.96
2019-03-06T02:54:58.671Z,989.99
2019-03-06T02:55:58.663Z,989.94
2019-03-06T02:56:58.661Z,989.93
2019-03-06T02:57:58.686Z,989.90
2019-03-06T02:58:58.634Z,989.89
2019-03-06T02:59:58.616Z,989.81
2019-03-06T03:00:58.611Z,989.75
2019-03-06T03:01:58.594Z,989.74
2019-03-06T03:02:58.606Z,989.72
2019-03-06T03:03:58.600Z,989.66
2019-03-06T03:04:58.563Z,989.64
2019-03-06T03:05:58.548Z,989.65
2019-03-06T03:06:58.547Z,989.63
2019-03-06T03:07:58.550Z,989.60
2019-03-06T03:08:58.521Z,989.55
2019-03-06T03:09:58.517Z,989.56
2019-03-06T03:10:58.494Z,989.48
2019-03-06T03:11:58.494Z,989.56
2019-03-06T03:12:58.494Z,989.51
2019-03-06T03:13:58.458Z,989.55
2019-03-06T03:14:58.454Z,989.51
2019-03-06T03:15:58.449Z,989.55
2019-03-06T03:16:58.431Z,989.48
2019-03-06T03:17:58.440Z,989.42
2019-03-06T03:18:58.405Z,989.46
2019-03-06T03:19:58.395Z,989.35
2019-03-06T03:20:58.394Z,989.30
2019-03-06T03:21:58.386Z,989.31
2019-03-06T03:22:58.385Z,989.32
2019-03-06T03:23:58.373Z,989.26
2019-03-06T03:24:58.335Z,989.26
2019-03-06T03:25:58.325Z,989.29
2019-03-06T03:26:58.317Z,989.27
2019-03-06T03:27:58.313Z,989.29
2019-03-06T03:28:58.316Z,989.30
2019-03-06T03:29:58.285Z,989.30
2019-03-06T03:30:58.270Z,989.30
2019-03-06T03:31:58.258Z,989.28
2019-03-06T03:32:58.248Z,989.22
2019-03-06T03:33:58.291Z,989.21
2019-03-06T03:34:58.245Z,989.22
2019-03-06T03:35:58.213Z,989.21
2019-03-06T03:36:58.201Z,989.20
2019-03-06T03:37:58.193Z,989.19
2019-03-06T03:38:58.204Z,989.19
2019-03-06T03:39:58.185Z,989.20
2019-03-06T03:40:58.164Z,989.16
2019-03-06T03:41:58.143Z,989.17
2019-03-06T03:42:58.137Z,989.15
2019-03-06T03:43:58.154Z,989.16
2019-03-06T03:44:58.112Z,989.14
2019-03-06T03:45:58.110Z,989.15
2019-03-06T03:46:58.090Z,989.10
2019-03-06T03:47:58.076Z,989.11
2019-03-06T03:48:58.088Z,989.11
2019-03-06T03:49:58.057Z,989.08
2019-03-06T03:50:58.042Z,989.05
2019-03-06T03:51:58.041Z,989.06
2019-03-06T03:52:58.095Z,989.03
2019-03-06T03:53:58.033Z,989.04
2019-03-06T03:54:58.004Z,989.01
2019-03-06T03:55:57.986Z,988.98
2019-03-06T03:56:57.976Z,988.93
2019-03-06T03:57:57.979Z,988.93
2019-03-06T03:58:57.976Z,988.92
2019-03-06T03:59:57.941Z,988.89
2019-03-06T04:00:57.941Z,988.83
2019-03-06T04:01:57.922Z,988.79
2019-03-06T04:02:57.923Z,988.77
2019-03-06T04:03:57.937Z,988.79
2019-03-06T04:04:57.888Z,988.80
2019-03-06T04:05:57.874Z,988.76
2019-03-06T04:06:57.863Z,988.74
2019-03-06T04:07:57.850Z,988.72
2019-03-06T04:08:57.866Z,988.76
2019-03-06T04:09:57.847Z,988.69
2019-03-06T04:10:57.823Z,988.69
2019-03-06T04:11:57.818Z,988.68
2019-03-06T04:12:57.800Z,988.63
2019-03-06T04:13:57.811Z,988.64
2019-03-06T04:14:57.781Z,988.65
2019-03-06T04:15:57.796Z,988.62
2019-03-06T04:16:57.760Z,988.63
2019-03-06T04:17:57.739Z,988.58
2019-03-06T04:18:57.732Z,988.59
2019-03-06T04:19:57.743Z,988.59
2019-03-06T04:20:57.706Z,988.65
2019-03-06T04:21:57.713Z,988.64
2019-03-06T04:22:57.685Z,988.54
2019-03-06T04:23:57.673Z,988.52
2019-03-06T04:24:57.684Z,988.46
2019-03-06T04:25:57.657Z,988.46
2019-03-06T04:26:57.637Z,988.55
2019-03-06T04:27:57.648Z,988.58
2019-03-06T04:28:57.621Z,988.51
2019-03-06T04:29:57.627Z,988.45
2019-03-06T04:30:57.596Z,988.47
2019-03-06T04:31:57.585Z,988.44
2019-03-06T04:32:57.574Z,988.44
2019-03-06T04:33:57.566Z,988.48
2019-03-06T04:34:57.570Z,988.60
2019-03-06T04:35:57.535Z,988.59
2019-03-06T04:36:57.528Z,988.68
2019-03-06T04:37:57.513Z,988.81
2019-03-06T04:38:57.513Z,988.85
2019-03-06T04:39:57.513Z,988.90
2019-03-06T04:40:57.485Z,988.88
2019-03-06T04:41:57.467Z,988.79
2019-03-06T04:42:57.460Z,988.76
2019-03-06T04:43:57.446Z,988.66
2019-03-06T04:44:57.467Z,988.64
2019-03-06T04:45:57.428Z,988.58
2019-03-06T04:46:57.413Z,988.64
2019-03-06T04:47:57.397Z,988.57
2019-03-06T04:48:57.388Z,988.58
2019-03-06T04:49:57.403Z,988.44
2019-03-06T04:50:57.377Z,988.40
2019-03-06T04:51:57.354Z,988.36
2019-03-06T04:52:57.343Z,988.35
2019-03-06T04:53:57.331Z,988.32
2019-03-06T04:54:57.343Z,988.30
2019-03-06T04:55:57.310Z,988.34
2019-03-06T04:56:57.307Z,988.31
2019-03-06T04:57:57.287Z,988.28
2019-03-06T04:58:57.276Z,988.25
2019-03-06T04:59:57.291Z,988.26
2019-03-06T05:00:57.278Z,988.20
2019-03-06T05:01:57.242Z,988.14
2019-03-06T05:02:57.257Z,988.13
2019-03-06T05:03:57.219Z,988.17
2019-03-06T05:04:57.207Z,988.15
2019-03-06T05:05:57.222Z,988.13
2019-03-06T05:06:57.185Z,988.09
2019-03-06T05:07:57.178Z,988.06
2019-03-06T05:08:57.182Z,987.99
2019-03-06T05:09:57.151Z,987.95
2019-03-06T05:10:57.165Z,987.96
2019-03-06T05:11:57.153Z,987.95
2019-03-06T05:12:57.118Z,987.89
2019-03-06T05:13:57.109Z,987.95
2019-03-06T05:14:57.102Z,987.87
2019-03-06T05:15:57.107Z,987.86
2019-03-06T05:16:57.072Z,987.86
2019-03-06T05:17:57.061Z,987.86
2019-03-06T05:18:57.049Z,987.86
2019-03-06T05:19:57.043Z,987.88
2019-03-06T05:20:57.091Z,987.84
2019-03-06T05:21:57.015Z,987.81
2019-03-06T05:22:57.005Z,987.85
2019-03-06T05:23:56.994Z,987.86
2019-03-06T05:24:56.988Z,987.82
2019-03-06T05:25:56.991Z,987.84
2019-03-06T05:26:56.967Z,987.79
2019-03-06T05:27:56.948Z,987.77
2019-03-06T05:28:56.940Z,987.68
2019-03-06T05:29:56.925Z,987.71
2019-03-06T05:30:56.938Z,987.69
2019-03-06T05:31:56.905Z,987.66
2019-03-06T05:32:56.958Z,987.70
2019-03-06T05:33:56.883Z,987.61
2019-03-06T05:34:56.868Z,987.65
2019-03-06T05:35:56.884Z,987.57
2019-03-06T05:36:56.858Z,987.61
2019-03-06T05:37:56.835Z,987.61
2019-03-06T05:38:56.839Z,987.58
2019-03-06T05:39:56.813Z,987.51
2019-03-06T05:40:56.834Z,987.54
2019-03-06T05:41:56.790Z,987.49
2019-03-06T05:42:56.778Z,987.49
2019-03-06T05:43:56.767Z,987.47
2019-03-06T05:44:56.769Z,987.47
2019-03-06T05:45:56.748Z,987.39
2019-03-06T05:46:56.758Z,987.43
2019-03-06T05:47:56.722Z,987.38
2019-03-06T05:48:56.712Z,987.38
2019-03-06T05:49:56.702Z,987.39
2019-03-06T05:50:56.708Z,987.38
2019-03-06T05:51:56.702Z,987.36
2019-03-06T05:52:56.675Z,987.29
2019-03-06T05:53:56.654Z,987.32
2019-03-06T05:54:56.643Z,987.24
2019-03-06T05:55:56.634Z,987.16
2019-03-06T05:56:56.649Z,987.20
2019-03-06T05:57:56.614Z,987.20
2019-03-06T05:58:56.601Z,987.13
2019-03-06T05:59:56.588Z,987.13
2019-03-06T06:00:56.581Z,987.16
2019-03-06T06:01:56.635Z,987.17
2019-03-06T06:02:56.591Z,987.19
2019-03-06T06:03:56.545Z,987.14
2019-03-06T06:04:56.528Z,987.23
2019-03-06T06:05:56.517Z,987.22
2019-03-06T06:06:56.530Z,987.15
2019-03-06T06:07:56.509Z,987.18
2019-03-06T06:08:56.500Z,987.19
2019-03-06T06:09:56.473Z,987.14
2019-03-06T06:10:56.462Z,987.17
2019-03-06T06:11:56.475Z,987.17
2019-03-06T06:12:56.444Z,987.08
2019-03-06T06:13:56.427Z,987.07
2019-03-06T06:14:56.544Z,987.10
2019-03-06T06:15:56.406Z,987.00
2019-03-06T06:16:56.419Z,986.95
2019-03-06T06:17:56.388Z,986.91
2019-03-06T06:18:56.374Z,986.91
2019-03-06T06:19:56.359Z,986.91
2019-03-06T06:20:56.462Z,986.90
2019-03-06T06:21:56.360Z,986.86
2019-03-06T06:22:57.290Z,986.85
2019-03-06T06:23:56.454Z,986.88
2019-03-06T06:24:56.302Z,986.86
2019-03-06T06:25:56.291Z,986.83
2019-03-06T06:26:56.302Z,986.85
2019-03-06T06:27:56.269Z,986.85
2019-03-06T06:28:56.311Z,986.88
2019-03-06T06:29:56.247Z,986.86
2019-03-06T06:30:56.234Z,986.88
2019-03-06T06:31:56.255Z,986.85
2019-03-06T06:32:56.212Z,986.86
2019-03-06T06:33:56.202Z,986.84
2019-03-06T06:34:56.195Z,986.86
2019-03-06T06:35:56.182Z,986.89
2019-03-06T06:36:56.194Z,986.95
2019-03-06T06:37:56.211Z,986.89
2019-03-06T06:38:56.146Z,986.87
2019-03-06T06:39:56.173Z,986.87
2019-03-06T06:40:56.131Z,986.88
2019-03-06T06:41:56.327Z,986.85
2019-03-06T06:42:56.149Z,986.93
2019-03-06T06:43:57.512Z,986.85
2019-03-06T06:44:56.768Z,986.86
2019-03-06T06:45:56.068Z,986.86
2019-03-06T06:46:56.084Z,986.82
2019-03-06T06:47:56.128Z,986.79
2019-03-06T06:49:04.645Z,986.74
2019-03-06T06:49:56.026Z,986.70
2019-03-06T06:51:01.753Z,986.72
2019-03-06T06:51:57.001Z,986.64
2019-03-06T06:52:56.009Z,986.67
2019-03-06T06:53:56.000Z,986.66
2019-03-06T06:54:55.996Z,986.67
2019-03-06T06:55:55.960Z,986.59
2019-03-06T06:56:55.957Z,986.60
2019-03-06T06:57:55.972Z,986.60
2019-03-06T06:58:55.928Z,986.57
2019-03-06T06:59:55.919Z,986.52
2019-03-06T07:00:55.901Z,986.50
2019-03-06T07:01:57.147Z,986.41
2019-03-06T07:02:55.909Z,986.41
2019-03-06T07:03:55.875Z,986.43
2019-03-06T07:04:55.860Z,986.39
2019-03-06T07:05:55.846Z,986.46
2019-03-06T07:06:55.870Z,986.51
2019-03-06T07:07:55.839Z,986.42
2019-03-06T07:08:55.892Z,986.46
2019-03-06T07:09:55.800Z,986.42
2019-03-06T07:10:55.783Z,986.46
2019-03-06T07:11:55.834Z,986.38
2019-03-06T07:12:55.787Z,986.37
2019-03-06T07:13:55.759Z,986.36
2019-03-06T07:14:55.738Z,986.32
2019-03-06T07:15:55.768Z,986.35
2019-03-06T07:16:57.523Z,986.30
2019-03-06T07:17:55.735Z,986.32
2019-03-06T07:18:55.699Z,986.35
2019-03-06T07:19:55.687Z,986.37
2019-03-06T07:20:55.743Z,986.36
2019-03-06T07:21:55.663Z,986.37
2019-03-06T07:22:55.685Z,986.37
2019-03-06T07:23:55.647Z,986.32
2019-03-06T07:24:55.630Z,986.32
2019-03-06T07:25:55.623Z,986.26
2019-03-06T07:26:55.615Z,986.29
2019-03-06T07:27:55.624Z,986.25
2019-03-06T07:28:55.584Z,986.20
2019-03-06T07:29:55.577Z,986.29
2019-03-06T07:30:55.568Z,986.29
2019-03-06T07:31:55.560Z,986.25
2019-03-06T07:32:55.569Z,986.22
2019-03-06T07:33:55.553Z,986.32
2019-03-06T07:34:55.522Z,986.26
2019-03-06T07:35:55.510Z,986.29
2019-03-06T07:36:55.494Z,986.32
2019-03-06T07:37:55.493Z,986.30
2019-03-06T07:38:55.498Z,986.29
2019-03-06T07:39:55.463Z,986.34
2019-03-06T07:40:55.453Z,986.29
2019-03-06T07:41:55.446Z,986.29
2019-03-06T07:42:55.428Z,986.18
2019-03-06T07:43:55.450Z,986.25
2019-03-06T07:44:55.425Z,986.25
2019-03-06T07:45:55.390Z,986.27
2019-03-06T07:46:55.381Z,986.19
2019-03-06T07:47:55.369Z,986.18
2019-03-06T07:48:55.379Z,986.15
2019-03-06T07:49:55.363Z,986.11
2019-03-06T07:50:55.339Z,986.13
2019-03-06T07:51:55.331Z,986.12
2019-03-06T07:52:55.341Z,986.14
2019-03-06T07:53:55.338Z,986.16
2019-03-06T07:54:55.317Z,986.16
2019-03-06T07:55:55.288Z,986.21
2019-03-06T07:56:55.275Z,986.18
2019-03-06T07:57:55.283Z,986.25
2019-03-06T07:58:55.275Z,986.20
2019-03-06T07:59:55.243Z,986.24
2019-03-06T08:00:55.238Z,986.25
2019-03-06T08:01:55.224Z,986.22
2019-03-06T08:02:55.207Z,986.24
2019-03-06T08:03:55.250Z,986.19
2019-03-06T08:04:55.182Z,986.18
2019-03-06T08:05:55.196Z,986.19
2019-03-06T08:06:55.168Z,986.12
2019-03-06T08:07:55.150Z,986.14
2019-03-06T08:08:55.145Z,986.17
2019-03-06T08:09:55.234Z,986.10
2019-03-06T08:10:55.119Z,986.08
2019-03-06T08:11:55.118Z,986.02
2019-03-06T08:12:55.098Z,986.06
2019-03-06T08:13:55.093Z,986.05
2019-03-06T08:14:55.097Z,986.01
2019-03-06T08:15:55.081Z,985.99
2019-03-06T08:16:55.062Z,985.90
2019-03-06T08:17:55.049Z,985.92
2019-03-06T08:18:56.016Z,985.90
2019-03-06T08:19:55.052Z,985.88
2019-03-06T08:20:55.006Z,985.87
2019-03-06T08:21:54.999Z,985.92
2019-03-06T08:22:55.000Z,985.89
2019-03-06T08:23:54.975Z,985.90
2019-03-06T08:24:55.003Z,985.85
2019-03-06T08:25:54.964Z,985.87
2019-03-06T08:26:54.959Z,985.86
2019-03-06T08:27:54.930Z,985.86
2019-03-06T08:28:54.922Z,985.81
2019-03-06T08:29:54.910Z,985.79
2019-03-06T08:30:54.947Z,985.81
2019-03-06T08:31:54.888Z,985.82
2019-03-06T08:32:54.877Z,985.79
2019-03-06T08:33:54.889Z,985.71
2019-03-06T08:34:54.854Z,985.85
2019-03-06T08:35:54.865Z,985.83
2019-03-06T08:36:54.832Z,985.77
2019-03-06T08:37:54.819Z,985.80
2019-03-06T08:38:54.840Z,985.78
2019-03-06T08:39:54.802Z,985.71
2019-03-06T08:41:03.570Z,985.75
2019-03-06T08:41:55.791Z,985.75
2019-03-06T08:42:54.761Z,985.77
2019-03-06T08:43:54.761Z,985.76
2019-03-06T08:44:54.738Z,985.77
2019-03-06T08:45:54.752Z,985.75
2019-03-06T08:46:54.724Z,985.82
2019-03-06T08:47:54.712Z,985.72
2019-03-06T08:48:54.698Z,985.71
2019-03-06T08:49:55.301Z,985.72
2019-03-06T08:50:54.716Z,985.77
2019-03-06T08:51:54.662Z,985.71
2019-03-06T08:52:54.650Z,985.66
2019-03-06T08:53:54.701Z,985.71
2019-03-06T08:54:54.627Z,985.65
2019-03-06T08:55:54.638Z,985.55
2019-03-06T08:56:54.603Z,985.53
2019-03-06T08:57:54.602Z,985.49
2019-03-06T08:58:57.124Z,985.50
2019-03-06T08:59:57.109Z,985.50
2019-03-06T09:00:54.655Z,985.46
2019-03-06T09:02:00.476Z,985.43
2019-03-06T09:02:55.546Z,985.38
2019-03-06T09:03:54.530Z,985.38
2019-03-06T09:05:09.655Z,985.33
2019-03-06T09:05:54.629Z,985.28
2019-03-06T09:08:21.626Z,985.24
2019-03-06T09:09:10.480Z,985.25
2019-03-06T09:10:13.444Z,985.20
2019-03-06T09:11:10.473Z,985.11
2019-03-06T09:12:10.446Z,985.11
2019-03-06T09:13:10.435Z,985.12
2019-03-06T09:14:10.415Z,985.08
2019-03-06T09:15:10.412Z,985.04
2019-03-06T09:16:10.418Z,985.06
2019-03-06T09:17:10.415Z,985.03
2019-03-06T09:18:10.366Z,985.02
2019-03-06T09:19:10.353Z,985.04
2019-03-06T09:20:10.341Z,985.02
2019-03-06T09:21:10.538Z,985.01
2019-03-06T09:22:10.347Z,985.02
2019-03-06T09:23:10.309Z,984.99
2019-03-06T09:24:10.325Z,984.98
2019-03-06T09:25:10.287Z,984.97
2019-03-06T09:26:10.355Z,984.97
2019-03-06T09:27:10.286Z,984.97
2019-03-06T09:28:10.255Z,985.02
2019-03-06T09:29:10.243Z,985.01
2019-03-06T09:30:16.065Z,984.99
2019-03-06T09:31:11.247Z,984.93
2019-03-06T09:32:10.217Z,984.92
2019-03-06T09:33:10.209Z,984.93
2019-03-06T09:34:10.202Z,984.96
2019-03-06T09:35:10.200Z,984.92
2019-03-06T09:36:10.167Z,984.90
2019-03-06T09:37:10.211Z,984.85
2019-03-06T09:38:11.222Z,984.87
2019-03-06T09:39:10.135Z,984.84
2019-03-06T09:40:10.130Z,984.89
2019-03-06T09:41:10.129Z,984.86
2019-03-06T09:42:10.119Z,984.82
2019-03-06T09:43:10.088Z,984.84
2019-03-06T09:44:10.079Z,984.79
2019-03-06T09:45:10.066Z,984.79
2019-03-06T09:46:10.095Z,984.78
2019-03-06T09:47:10.111Z,984.85
2019-03-06T09:48:10.034Z,984.85
2019-03-06T09:49:11.791Z,984.90
2019-03-06T09:50:10.007Z,985.00
2019-03-06T09:51:09.996Z,984.97
2019-03-06T09:52:10.039Z,985.04
2019-03-06T09:53:09.975Z,985.02
2019-03-06T09:54:09.970Z,985.02
2019-03-06T09:55:09.955Z,985.00
2019-03-06T09:56:09.955Z,984.95
2019-03-06T09:57:09.973Z,984.88
2019-03-06T09:58:09.931Z,984.89
2019-03-06T09:59:09.969Z,984.90
2019-03-06T10:00:09.923Z,984.85
2019-03-06T10:01:10.455Z,984.76
2019-03-06T10:02:09.896Z,984.75
2019-03-06T10:03:09.864Z,984.72
2019-03-06T10:04:09.853Z,984.69
2019-03-06T10:05:09.845Z,984.63
2019-03-06T10:06:09.885Z,984.61
2019-03-06T10:07:09.819Z,984.58
2019-03-06T10:08:09.842Z,984.54
2019-03-06T10:09:09.827Z,984.44
2019-03-06T10:10:09.783Z,984.41
2019-03-06T10:11:09.781Z,984.39
2019-03-06T10:12:09.763Z,984.35
2019-03-06T10:13:09.775Z,984.34
2019-03-06T10:14:09.742Z,984.37
2019-03-06T10:15:09.769Z,984.38
2019-03-06T10:16:09.724Z,984.36
2019-03-06T10:17:09.709Z,984.36
2019-03-06T10:18:09.725Z,984.37
2019-03-06T10:19:09.685Z,984.34
2019-03-06T10:20:09.673Z,984.28
2019-03-06T10:21:09.661Z,984.35
2019-03-06T10:22:09.689Z,984.29
2019-03-06T10:23:09.664Z,984.30
2019-03-06T10:24:09.668Z,984.29
2019-03-06T10:25:09.617Z,984.28
2019-03-06T10:26:09.612Z,984.23
2019-03-06T10:27:09.614Z,984.24
2019-03-06T10:28:09.609Z,984.26
2019-03-06T10:29:09.600Z,984.27
2019-03-06T10:30:09.734Z,984.26
2019-03-06T10:31:09.558Z,984.22
2019-03-06T10:32:09.564Z,984.17
2019-03-06T10:33:09.549Z,984.11
2019-03-06T10:34:09.540Z,984.06
2019-03-06T10:35:09.549Z,984.02
2019-03-06T10:36:09.495Z,984.03
2019-03-06T10:37:09.488Z,983.96
2019-03-06T10:38:16.448Z,983.93
2019-03-06T10:39:10.480Z,983.94
2019-03-06T10:40:10.022Z,983.94
2019-03-06T10:41:12.603Z,983.86
2019-03-06T10:42:09.559Z,983.87
2019-03-06T10:43:09.413Z,983.77
2019-03-06T10:44:09.428Z,983.86
2019-03-06T10:45:09.406Z,983.92
2019-03-06T10:46:09.381Z,983.97
2019-03-06T10:47:09.382Z,983.95
2019-03-06T10:48:13.569Z,983.95
2019-03-06T10:49:09.373Z,983.99
2019-03-06T10:50:09.347Z,983.98
2019-03-06T10:51:09.322Z,983.98
2019-03-06T10:52:09.315Z,983.92
2019-03-06T10:53:09.314Z,983.94
2019-03-06T10:54:09.317Z,983.92
2019-03-06T10:55:09.276Z,983.88
2019-03-06T10:56:09.264Z,983.91
2019-03-06T10:57:09.259Z,983.82
2019-03-06T10:58:09.242Z,983.83
2019-03-06T10:59:09.262Z,983.85
2019-03-06T11:00:09.450Z,983.86
2019-03-06T11:01:09.314Z,983.81
2019-03-06T11:02:09.411Z,983.84
2019-03-06T11:03:09.188Z,983.76
2019-03-06T11:04:09.197Z,983.82
2019-03-06T11:05:09.162Z,983.84
2019-03-06T11:06:09.152Z,983.92
2019-03-06T11:07:09.141Z,983.94
2019-03-06T11:08:09.136Z,983.94
2019-03-06T11:09:09.178Z,983.99
2019-03-06T11:10:09.106Z,983.99
2019-03-06T11:11:09.097Z,984.02
2019-03-06T11:12:09.096Z,984.03
2019-03-06T11:13:09.188Z,984.00
2019-03-06T11:14:09.091Z,983.91
2019-03-06T11:15:09.054Z,983.99
2019-03-06T11:16:09.040Z,983.93
2019-03-06T11:17:09.026Z,983.94
2019-03-06T11:18:09.016Z,983.92
2019-03-06T11:19:09.165Z,983.90
2019-03-06T11:20:09.028Z,983.79
2019-03-06T11:21:08.980Z,983.78
2019-03-06T11:22:08.969Z,983.75
2019-03-06T11:23:08.957Z,983.70
2019-03-06T11:24:08.946Z,983.64
2019-03-06T11:25:08.956Z,983.64
2019-03-06T11:26:08.937Z,983.59
2019-03-06T11:27:08.913Z,983.58
2019-03-06T11:28:08.901Z,983.60
2019-03-06T11:29:08.891Z,983.59
2019-03-06T11:30:08.910Z,983.59
2019-03-06T11:31:08.866Z,983.56
2019-03-06T11:32:08.858Z,983.55
2019-03-06T11:33:08.863Z,983.59
2019-03-06T11:34:08.833Z,983.51
2019-03-06T11:35:08.843Z,983.46
2019-03-06T11:36:08.875Z,983.48
2019-03-06T11:37:08.801Z,983.41
2019-03-06T11:38:08.789Z,983.45
2019-03-06T11:39:08.795Z,983.39
2019-03-06T11:40:08.803Z,983.40
2019-03-06T11:41:08.754Z,983.39
2019-03-06T11:42:08.745Z,983.34
2019-03-06T11:43:08.753Z,983.27
2019-03-06T11:44:08.731Z,983.31
2019-03-06T11:45:08.732Z,983.25
2019-03-06T11:46:08.702Z,983.20
2019-03-06T11:47:08.687Z,983.15
2019-03-06T11:48:08.677Z,983.15
2019-03-06T11:49:08.682Z,983.13
2019-03-06T11:50:08.677Z,983.12
2019-03-06T11:51:08.649Z,983.09
2019-03-06T11:52:08.641Z,983.09
2019-03-06T11:53:08.666Z,983.11
2019-03-06T11:54:08.665Z,983.08
2019-03-06T11:55:08.631Z,983.08
2019-03-06T11:56:08.637Z,983.06
2019-03-06T11:57:08.577Z,983.01
2019-03-06T11:58:08.565Z,982.94
2019-03-06T11:59:08.593Z,982.86
2019-03-06T12:00:08.569Z,982.81
2019-03-06T12:01:08.616Z,982.81
2019-03-06T12:02:08.521Z,982.75
2019-03-06T12:03:08.510Z,982.78
2019-03-06T12:04:08.501Z,982.77
2019-03-06T12:05:08.789Z,982.85
2019-03-06T12:06:08.620Z,982.80
2019-03-06T12:07:08.467Z,982.76
2019-03-06T12:08:08.471Z,982.75
2019-03-06T12:09:08.445Z,982.64
2019-03-06T12:10:08.437Z,982.58
2019-03-06T12:11:08.962Z,982.63
2019-03-06T12:12:08.415Z,982.62
2019-03-06T12:13:08.401Z,982.61
2019-03-06T12:14:08.536Z,982.64
2019-03-06T12:15:08.417Z,982.49
2019-03-06T12:16:08.905Z,982.53
2019-03-06T12:17:08.373Z,982.50
2019-03-06T12:18:08.352Z,982.47
2019-03-06T12:19:08.338Z,982.45
2019-03-06T12:20:08.608Z,982.41
2019-03-06T12:21:08.352Z,982.36
2019-03-06T12:22:08.306Z,982.37
2019-03-06T12:23:08.291Z,982.35
2019-03-06T12:24:08.276Z,982.33
2019-03-06T12:25:08.265Z,982.37
2019-03-06T12:26:08.292Z,982.33
2019-03-06T12:27:08.247Z,982.28
2019-03-06T12:28:08.241Z,982.25
2019-03-06T12:29:08.224Z,982.28